sensor_id;sensor_type;location;lat;lon;timestamp;P1;durP1;ratioP1;P2;durP2;ratioP2
6209;SDS011;3138;52.550;13.148;2023-11-19T00:02:27;16.23;;;10.20;;
6209;SDS011;3138;52.550;13.148;2023-11-19T00:04:54;15.70;;;9.70;;
6209;SDS011;3138;52.550;13.148;2023-11-19T00:07:21;17.63;;;11.50;;
6209;SDS011;3138;52.550;13.148;2023-11-19T00:09:47;17.63;;;11.10;;
6209;SDS011;3138;52.550;13.148;2023-11-19T00:12:15;16.13;;;9.27;;
6209;SDS011;3138;52.550;13.148;2023-11-19T00:14:41;20.33;;;9.73;;
6209;SDS011;3138;52.550;13.148;2023-11-19T00:17:09;18.70;;;11.10;;
6209;SDS011;3138;52.550;13.148;2023-11-19T00:19:37;20.17;;;10.50;;
6209;SDS011;3138;52.550;13.148;2023-11-19T00:22:04;15.20;;;10.30;;
6209;SDS011;3138;52.550;13.148;2023-11-19T00:24:31;16.00;;;11.33;;
6209;SDS011;3138;52.550;13.148;2023-11-19T00:26:57;15.17;;;9.90;;
6209;SDS011;3138;52.550;13.148;2023-11-19T00:29:24;17.33;;;10.87;;
6209;SDS011;3138;52.550;13.148;2023-11-19T00:31:51;20.57;;;11.17;;
6209;SDS011;3138;52.550;13.148;2023-11-19T00:34:18;22.73;;;11.33;;
6209;SDS011;3138;52.550;13.148;2023-11-19T00:36:48;11.70;;;9.17;;
6209;SDS011;3138;52.550;13.148;2023-11-19T00:39:15;17.80;;;10.47;;
6209;SDS011;3138;52.550;13.148;2023-11-19T00:41:45;18.03;;;10.70;;
6209;SDS011;3138;52.550;13.148;2023-11-19T00:44:12;14.27;;;11.10;;
6209;SDS011;3138;52.550;13.148;2023-11-19T00:46:38;12.27;;;9.83;;
6209;SDS011;3138;52.550;13.148;2023-11-19T00:49:05;15.93;;;9.73;;
6209;SDS011;3138;52.550;13.148;2023-11-19T00:51:32;19.23;;;11.27;;
6209;SDS011;3138;52.550;13.148;2023-11-19T00:54:00;12.37;;;8.20;;
6209;SDS011;3138;52.550;13.148;2023-11-19T00:56:27;16.47;;;9.80;;
6209;SDS011;3138;52.550;13.148;2023-11-19T00:58:54;16.70;;;10.83;;
6209;SDS011;3138;52.550;13.148;2023-11-19T01:01:22;12.70;;;9.00;;
6209;SDS011;3138;52.550;13.148;2023-11-19T01:03:49;13.70;;;9.60;;
6209;SDS011;3138;52.550;13.148;2023-11-19T01:06:26;12.87;;;8.90;;
6209;SDS011;3138;52.550;13.148;2023-11-19T01:08:53;11.40;;;8.70;;
6209;SDS011;3138;52.550;13.148;2023-11-19T01:11:23;13.00;;;9.30;;
6209;SDS011;3138;52.550;13.148;2023-11-19T01:13:51;11.77;;;8.80;;
6209;SDS011;3138;52.550;13.148;2023-11-19T01:16:18;15.10;;;9.60;;
6209;SDS011;3138;52.550;13.148;2023-11-19T01:18:46;12.10;;;9.20;;
6209;SDS011;3138;52.550;13.148;2023-11-19T01:21:13;12.83;;;8.03;;
6209;SDS011;3138;52.550;13.148;2023-11-19T01:23:40;10.57;;;9.13;;
6209;SDS011;3138;52.550;13.148;2023-11-19T01:26:08;18.43;;;9.20;;
6209;SDS011;3138;52.550;13.148;2023-11-19T01:28:38;15.87;;;8.70;;
6209;SDS011;3138;52.550;13.148;2023-11-19T01:31:09;21.57;;;8.33;;
6209;SDS011;3138;52.550;13.148;2023-11-19T01:33:37;11.57;;;8.83;;
6209;SDS011;3138;52.550;13.148;2023-11-19T01:36:05;11.70;;;8.57;;
6209;SDS011;3138;52.550;13.148;2023-11-19T01:38:33;13.70;;;8.10;;
6209;SDS011;3138;52.550;13.148;2023-11-19T01:41:00;13.47;;;9.23;;
6209;SDS011;3138;52.550;13.148;2023-11-19T01:43:31;11.53;;;8.43;;
6209;SDS011;3138;52.550;13.148;2023-11-19T01:46:04;12.30;;;7.97;;
6209;SDS011;3138;52.550;13.148;2023-11-19T01:48:32;11.50;;;7.67;;
6209;SDS011;3138;52.550;13.148;2023-11-19T01:51:01;11.73;;;7.73;;
6209;SDS011;3138;52.550;13.148;2023-11-19T01:53:29;12.80;;;8.23;;
6209;SDS011;3138;52.550;13.148;2023-11-19T01:55:57;12.10;;;8.53;;
6209;SDS011;3138;52.550;13.148;2023-11-19T01:58:24;8.90;;;7.20;;
6209;SDS011;3138;52.550;13.148;2023-11-19T02:00:51;8.90;;;7.20;;
6209;SDS011;3138;52.550;13.148;2023-11-19T02:03:19;12.17;;;8.17;;
6209;SDS011;3138;52.550;13.148;2023-11-19T02:05:47;11.10;;;8.27;;
6209;SDS011;3138;52.550;13.148;2023-11-19T02:08:16;12.13;;;7.70;;
6209;SDS011;3138;52.550;13.148;2023-11-19T02:10:43;11.27;;;7.83;;
6209;SDS011;3138;52.550;13.148;2023-11-19T02:13:09;14.20;;;8.80;;
6209;SDS011;3138;52.550;13.148;2023-11-19T02:15:38;10.93;;;8.60;;
6209;SDS011;3138;52.550;13.148;2023-11-19T02:18:23;10.23;;;7.47;;
6209;SDS011;3138;52.550;13.148;2023-11-19T02:20:52;9.23;;;7.30;;
6209;SDS011;3138;52.550;13.148;2023-11-19T02:23:19;15.70;;;7.70;;
6209;SDS011;3138;52.550;13.148;2023-11-19T02:25:47;10.77;;;8.07;;
6209;SDS011;3138;52.550;13.148;2023-11-19T02:28:22;9.77;;;7.30;;
6209;SDS011;3138;52.550;13.148;2023-11-19T02:30:49;8.47;;;6.73;;
6209;SDS011;3138;52.550;13.148;2023-11-19T02:33:16;11.30;;;7.83;;
6209;SDS011;3138;52.550;13.148;2023-11-19T02:35:43;10.20;;;8.57;;
6209;SDS011;3138;52.550;13.148;2023-11-19T02:38:10;7.73;;;6.40;;
6209;SDS011;3138;52.550;13.148;2023-11-19T02:40:39;10.10;;;7.10;;
6209;SDS011;3138;52.550;13.148;2023-11-19T02:43:05;9.23;;;6.90;;
6209;SDS011;3138;52.550;13.148;2023-11-19T02:45:35;7.70;;;6.37;;
6209;SDS011;3138;52.550;13.148;2023-11-19T02:48:02;7.00;;;6.30;;
6209;SDS011;3138;52.550;13.148;2023-11-19T02:50:31;8.73;;;6.63;;
6209;SDS011;3138;52.550;13.148;2023-11-19T02:52:58;7.63;;;6.10;;
6209;SDS011;3138;52.550;13.148;2023-11-19T02:55:26;8.27;;;6.60;;
6209;SDS011;3138;52.550;13.148;2023-11-19T02:57:55;11.23;;;6.77;;
6209;SDS011;3138;52.550;13.148;2023-11-19T03:00:24;7.30;;;6.40;;
6209;SDS011;3138;52.550;13.148;2023-11-19T03:02:58;6.97;;;6.27;;
6209;SDS011;3138;52.550;13.148;2023-11-19T03:05:34;11.93;;;6.80;;
6209;SDS011;3138;52.550;13.148;2023-11-19T03:08:01;8.00;;;6.77;;
6209;SDS011;3138;52.550;13.148;2023-11-19T03:10:28;18.53;;;8.17;;
6209;SDS011;3138;52.550;13.148;2023-11-19T03:12:55;16.63;;;6.43;;
6209;SDS011;3138;52.550;13.148;2023-11-19T03:15:22;8.97;;;7.00;;
6209;SDS011;3138;52.550;13.148;2023-11-19T03:17:49;11.27;;;8.10;;
6209;SDS011;3138;52.550;13.148;2023-11-19T03:20:17;12.27;;;8.37;;
6209;SDS011;3138;52.550;13.148;2023-11-19T03:22:44;9.80;;;7.77;;
6209;SDS011;3138;52.550;13.148;2023-11-19T03:25:10;10.07;;;7.20;;
6209;SDS011;3138;52.550;13.148;2023-11-19T03:27:38;9.20;;;7.47;;
6209;SDS011;3138;52.550;13.148;2023-11-19T03:30:07;13.97;;;7.77;;
6209;SDS011;3138;52.550;13.148;2023-11-19T03:32:35;9.67;;;8.03;;
6209;SDS011;3138;52.550;13.148;2023-11-19T03:35:04;14.50;;;9.40;;
6209;SDS011;3138;52.550;13.148;2023-11-19T03:37:35;12.20;;;8.40;;
6209;SDS011;3138;52.550;13.148;2023-11-19T03:40:02;14.20;;;9.60;;
6209;SDS011;3138;52.550;13.148;2023-11-19T03:42:30;13.33;;;9.40;;
6209;SDS011;3138;52.550;13.148;2023-11-19T03:44:57;11.50;;;8.37;;
6209;SDS011;3138;52.550;13.148;2023-11-19T03:47:24;11.00;;;8.67;;
6209;SDS011;3138;52.550;13.148;2023-11-19T03:49:51;11.23;;;8.40;;
6209;SDS011;3138;52.550;13.148;2023-11-19T03:52:18;17.53;;;8.97;;
6209;SDS011;3138;52.550;13.148;2023-11-19T03:54:46;14.13;;;9.47;;
6209;SDS011;3138;52.550;13.148;2023-11-19T03:57:13;16.20;;;10.50;;
6209;SDS011;3138;52.550;13.148;2023-11-19T03:59:40;12.17;;;8.97;;
6209;SDS011;3138;52.550;13.148;2023-11-19T04:02:07;13.07;;;8.90;;
6209;SDS011;3138;52.550;13.148;2023-11-19T04:04:35;10.90;;;8.90;;
6209;SDS011;3138;52.550;13.148;2023-11-19T04:07:02;12.70;;;8.90;;
6209;SDS011;3138;52.550;13.148;2023-11-19T04:09:29;14.90;;;9.93;;
6209;SDS011;3138;52.550;13.148;2023-11-19T04:11:59;14.63;;;8.90;;
6209;SDS011;3138;52.550;13.148;2023-11-19T04:14:26;13.00;;;10.30;;
6209;SDS011;3138;52.550;13.148;2023-11-19T04:16:53;11.57;;;8.33;;
6209;SDS011;3138;52.550;13.148;2023-11-19T04:19:20;16.80;;;10.23;;
6209;SDS011;3138;52.550;13.148;2023-11-19T04:21:47;12.20;;;9.93;;
6209;SDS011;3138;52.550;13.148;2023-11-19T04:24:13;11.50;;;8.30;;
6209;SDS011;3138;52.550;13.148;2023-11-19T04:26:40;13.97;;;10.13;;
6209;SDS011;3138;52.550;13.148;2023-11-19T04:29:11;16.53;;;8.67;;
6209;SDS011;3138;52.550;13.148;2023-11-19T04:31:38;9.93;;;8.60;;
6209;SDS011;3138;52.550;13.148;2023-11-19T04:34:05;11.50;;;9.20;;
6209;SDS011;3138;52.550;13.148;2023-11-19T04:36:32;14.30;;;10.03;;
6209;SDS011;3138;52.550;13.148;2023-11-19T04:38:58;12.27;;;10.00;;
6209;SDS011;3138;52.550;13.148;2023-11-19T04:41:25;20.70;;;9.63;;
6209;SDS011;3138;52.550;13.148;2023-11-19T04:43:53;12.77;;;9.47;;
6209;SDS011;3138;52.550;13.148;2023-11-19T04:46:21;15.07;;;9.47;;
6209;SDS011;3138;52.550;13.148;2023-11-19T04:48:48;14.33;;;10.23;;
6209;SDS011;3138;52.550;13.148;2023-11-19T04:51:17;12.30;;;8.93;;
6209;SDS011;3138;52.550;13.148;2023-11-19T04:53:44;11.00;;;8.70;;
6209;SDS011;3138;52.550;13.148;2023-11-19T04:56:11;15.37;;;9.30;;
6209;SDS011;3138;52.550;13.148;2023-11-19T04:58:38;13.27;;;9.00;;
6209;SDS011;3138;52.550;13.148;2023-11-19T05:01:05;12.17;;;9.13;;
6209;SDS011;3138;52.550;13.148;2023-11-19T05:03:33;12.90;;;9.60;;
6209;SDS011;3138;52.550;13.148;2023-11-19T05:06:01;12.67;;;9.10;;
6209;SDS011;3138;52.550;13.148;2023-11-19T05:08:28;12.80;;;9.97;;
6209;SDS011;3138;52.550;13.148;2023-11-19T05:10:55;9.47;;;8.27;;
6209;SDS011;3138;52.550;13.148;2023-11-19T05:13:22;13.33;;;8.33;;
6209;SDS011;3138;52.550;13.148;2023-11-19T05:15:48;8.70;;;7.80;;
6209;SDS011;3138;52.550;13.148;2023-11-19T05:18:15;11.17;;;8.70;;
6209;SDS011;3138;52.550;13.148;2023-11-19T05:20:43;11.90;;;7.50;;
6209;SDS011;3138;52.550;13.148;2023-11-19T05:23:10;13.93;;;7.77;;
6209;SDS011;3138;52.550;13.148;2023-11-19T05:25:37;13.20;;;8.57;;
6209;SDS011;3138;52.550;13.148;2023-11-19T05:28:05;8.33;;;7.53;;
6209;SDS011;3138;52.550;13.148;2023-11-19T05:30:33;9.03;;;7.27;;
6209;SDS011;3138;52.550;13.148;2023-11-19T05:33:00;10.57;;;7.57;;
6209;SDS011;3138;52.550;13.148;2023-11-19T05:35:27;10.70;;;8.20;;
6209;SDS011;3138;52.550;13.148;2023-11-19T05:37:55;9.30;;;6.30;;
6209;SDS011;3138;52.550;13.148;2023-11-19T05:40:21;9.50;;;7.83;;
6209;SDS011;3138;52.550;13.148;2023-11-19T05:42:48;10.93;;;7.23;;
6209;SDS011;3138;52.550;13.148;2023-11-19T05:45:15;8.13;;;7.33;;
6209;SDS011;3138;52.550;13.148;2023-11-19T05:47:42;10.00;;;7.03;;
6209;SDS011;3138;52.550;13.148;2023-11-19T05:50:09;9.90;;;7.73;;
6209;SDS011;3138;52.550;13.148;2023-11-19T05:52:36;11.63;;;8.83;;
6209;SDS011;3138;52.550;13.148;2023-11-19T05:55:05;8.50;;;6.60;;
6209;SDS011;3138;52.550;13.148;2023-11-19T05:57:34;13.50;;;8.93;;
6209;SDS011;3138;52.550;13.148;2023-11-19T06:00:01;8.57;;;7.60;;
6209;SDS011;3138;52.550;13.148;2023-11-19T06:02:32;12.20;;;7.87;;
6209;SDS011;3138;52.550;13.148;2023-11-19T06:04:59;13.90;;;10.00;;
6209;SDS011;3138;52.550;13.148;2023-11-19T06:07:26;14.23;;;9.30;;
6209;SDS011;3138;52.550;13.148;2023-11-19T06:09:52;10.90;;;8.83;;
6209;SDS011;3138;52.550;13.148;2023-11-19T06:12:21;14.40;;;10.63;;
6209;SDS011;3138;52.550;13.148;2023-11-19T06:14:47;14.33;;;8.53;;
6209;SDS011;3138;52.550;13.148;2023-11-19T06:17:14;13.87;;;8.70;;
6209;SDS011;3138;52.550;13.148;2023-11-19T06:19:41;14.40;;;9.63;;
6209;SDS011;3138;52.550;13.148;2023-11-19T06:22:08;15.93;;;9.27;;
6209;SDS011;3138;52.550;13.148;2023-11-19T06:24:35;12.10;;;9.47;;
6209;SDS011;3138;52.550;13.148;2023-11-19T06:27:02;16.00;;;10.40;;
6209;SDS011;3138;52.550;13.148;2023-11-19T06:29:31;13.40;;;9.33;;
6209;SDS011;3138;52.550;13.148;2023-11-19T06:31:57;15.40;;;10.07;;
6209;SDS011;3138;52.550;13.148;2023-11-19T06:34:25;16.20;;;9.23;;
6209;SDS011;3138;52.550;13.148;2023-11-19T06:36:51;11.07;;;8.70;;
6209;SDS011;3138;52.550;13.148;2023-11-19T06:39:18;10.70;;;8.27;;
6209;SDS011;3138;52.550;13.148;2023-11-19T06:41:45;9.23;;;7.60;;
6209;SDS011;3138;52.550;13.148;2023-11-19T06:44:12;11.27;;;8.63;;
6209;SDS011;3138;52.550;13.148;2023-11-19T06:46:41;7.80;;;6.90;;
6209;SDS011;3138;52.550;13.148;2023-11-19T06:49:07;8.80;;;6.77;;
6209;SDS011;3138;52.550;13.148;2023-11-19T06:51:34;10.10;;;6.87;;
6209;SDS011;3138;52.550;13.148;2023-11-19T06:54:01;9.33;;;7.67;;
6209;SDS011;3138;52.550;13.148;2023-11-19T06:56:28;8.83;;;7.07;;
6209;SDS011;3138;52.550;13.148;2023-11-19T06:58:57;8.50;;;7.23;;
6209;SDS011;3138;52.550;13.148;2023-11-19T07:01:23;9.90;;;7.73;;
6209;SDS011;3138;52.550;13.148;2023-11-19T07:03:51;8.20;;;7.40;;
6209;SDS011;3138;52.550;13.148;2023-11-19T07:06:18;7.80;;;7.00;;
6209;SDS011;3138;52.550;13.148;2023-11-19T07:08:45;10.30;;;8.20;;
6209;SDS011;3138;52.550;13.148;2023-11-19T07:11:12;9.00;;;7.20;;
6209;SDS011;3138;52.550;13.148;2023-11-19T07:13:41;11.20;;;8.20;;
6209;SDS011;3138;52.550;13.148;2023-11-19T07:16:08;8.40;;;6.97;;
6209;SDS011;3138;52.550;13.148;2023-11-19T07:18:36;8.43;;;7.03;;
6209;SDS011;3138;52.550;13.148;2023-11-19T07:21:05;7.80;;;6.60;;
6209;SDS011;3138;52.550;13.148;2023-11-19T07:23:35;6.80;;;6.20;;
6209;SDS011;3138;52.550;13.148;2023-11-19T07:26:04;11.40;;;7.00;;
6209;SDS011;3138;52.550;13.148;2023-11-19T07:28:33;8.90;;;7.10;;
6209;SDS011;3138;52.550;13.148;2023-11-19T07:31:00;9.73;;;7.80;;
6209;SDS011;3138;52.550;13.148;2023-11-19T07:33:27;9.70;;;8.27;;
6209;SDS011;3138;52.550;13.148;2023-11-19T07:35:54;7.20;;;6.50;;
6209;SDS011;3138;52.550;13.148;2023-11-19T07:38:23;7.33;;;6.60;;
6209;SDS011;3138;52.550;13.148;2023-11-19T07:40:49;7.90;;;7.10;;
6209;SDS011;3138;52.550;13.148;2023-11-19T07:43:16;9.40;;;7.00;;
6209;SDS011;3138;52.550;13.148;2023-11-19T07:45:43;11.30;;;8.30;;
6209;SDS011;3138;52.550;13.148;2023-11-19T07:48:11;14.23;;;7.43;;
6209;SDS011;3138;52.550;13.148;2023-11-19T07:50:38;12.00;;;7.43;;
6209;SDS011;3138;52.550;13.148;2023-11-19T07:53:06;7.53;;;6.83;;
6209;SDS011;3138;52.550;13.148;2023-11-19T07:55:35;8.50;;;7.10;;
6209;SDS011;3138;52.550;13.148;2023-11-19T07:58:02;8.90;;;7.43;;
6209;SDS011;3138;52.550;13.148;2023-11-19T08:00:28;7.67;;;6.87;;
6209;SDS011;3138;52.550;13.148;2023-11-19T08:02:55;13.13;;;7.57;;
6209;SDS011;3138;52.550;13.148;2023-11-19T08:05:22;7.00;;;6.30;;
6209;SDS011;3138;52.550;13.148;2023-11-19T08:07:49;7.13;;;6.27;;
6209;SDS011;3138;52.550;13.148;2023-11-19T08:10:17;6.13;;;5.57;;
6209;SDS011;3138;52.550;13.148;2023-11-19T08:12:45;10.90;;;7.90;;
6209;SDS011;3138;52.550;13.148;2023-11-19T08:15:12;7.77;;;6.80;;
6209;SDS011;3138;52.550;13.148;2023-11-19T08:17:39;7.43;;;6.70;;
6209;SDS011;3138;52.550;13.148;2023-11-19T08:20:06;10.40;;;6.70;;
6209;SDS011;3138;52.550;13.148;2023-11-19T08:22:35;9.40;;;7.57;;
6209;SDS011;3138;52.550;13.148;2023-11-19T08:25:03;9.03;;;6.97;;
6209;SDS011;3138;52.550;13.148;2023-11-19T08:27:30;10.53;;;7.47;;
6209;SDS011;3138;52.550;13.148;2023-11-19T08:29:58;11.20;;;8.57;;
6209;SDS011;3138;52.550;13.148;2023-11-19T08:32:26;7.70;;;6.93;;
6209;SDS011;3138;52.550;13.148;2023-11-19T08:34:53;7.87;;;7.00;;
6209;SDS011;3138;52.550;13.148;2023-11-19T08:37:21;7.73;;;7.03;;
6209;SDS011;3138;52.550;13.148;2023-11-19T08:39:48;6.93;;;6.33;;
6209;SDS011;3138;52.550;13.148;2023-11-19T08:42:15;8.20;;;7.40;;
6209;SDS011;3138;52.550;13.148;2023-11-19T08:44:42;6.80;;;6.10;;
6209;SDS011;3138;52.550;13.148;2023-11-19T08:47:13;10.60;;;7.23;;
6209;SDS011;3138;52.550;13.148;2023-11-19T08:49:41;8.67;;;6.30;;
6209;SDS011;3138;52.550;13.148;2023-11-19T08:52:07;8.53;;;6.27;;
6209;SDS011;3138;52.550;13.148;2023-11-19T08:54:35;7.70;;;6.10;;
6209;SDS011;3138;52.550;13.148;2023-11-19T08:57:02;6.77;;;5.13;;
6209;SDS011;3138;52.550;13.148;2023-11-19T08:59:29;8.47;;;5.33;;
6209;SDS011;3138;52.550;13.148;2023-11-19T09:01:56;6.90;;;5.20;;
6209;SDS011;3138;52.550;13.148;2023-11-19T09:04:24;6.30;;;5.70;;
6209;SDS011;3138;52.550;13.148;2023-11-19T09:06:51;6.07;;;5.50;;
6209;SDS011;3138;52.550;13.148;2023-11-19T09:09:18;5.60;;;5.13;;
6209;SDS011;3138;52.550;13.148;2023-11-19T09:11:45;7.40;;;6.20;;
6209;SDS011;3138;52.550;13.148;2023-11-19T09:14:11;6.10;;;5.40;;
6209;SDS011;3138;52.550;13.148;2023-11-19T09:16:38;5.50;;;5.00;;
6209;SDS011;3138;52.550;13.148;2023-11-19T09:19:05;6.27;;;4.97;;
6209;SDS011;3138;52.550;13.148;2023-11-19T09:21:33;8.93;;;5.80;;
6209;SDS011;3138;52.550;13.148;2023-11-19T09:24:03;12.10;;;4.57;;
6209;SDS011;3138;52.550;13.148;2023-11-19T09:26:32;26.27;;;4.63;;
6209;SDS011;3138;52.550;13.148;2023-11-19T09:28:59;12.93;;;4.47;;
6209;SDS011;3138;52.550;13.148;2023-11-19T09:31:28;5.17;;;4.77;;
6209;SDS011;3138;52.550;13.148;2023-11-19T09:33:55;5.20;;;4.70;;
6209;SDS011;3138;52.550;13.148;2023-11-19T09:36:22;4.30;;;3.90;;
6209;SDS011;3138;52.550;13.148;2023-11-19T09:38:50;4.00;;;3.70;;
6209;SDS011;3138;52.550;13.148;2023-11-19T09:41:17;6.00;;;3.53;;
6209;SDS011;3138;52.550;13.148;2023-11-19T09:43:44;15.17;;;4.33;;
6209;SDS011;3138;52.550;13.148;2023-11-19T09:46:13;5.13;;;4.03;;
6209;SDS011;3138;52.550;13.148;2023-11-19T09:48:42;4.23;;;3.50;;
6209;SDS011;3138;52.550;13.148;2023-11-19T09:51:10;5.03;;;4.00;;
6209;SDS011;3138;52.550;13.148;2023-11-19T09:53:37;10.70;;;4.17;;
6209;SDS011;3138;52.550;13.148;2023-11-19T09:56:07;5.67;;;3.33;;
6209;SDS011;3138;52.550;13.148;2023-11-19T09:58:34;4.37;;;3.60;;
6209;SDS011;3138;52.550;13.148;2023-11-19T10:01:01;5.97;;;3.97;;
6209;SDS011;3138;52.550;13.148;2023-11-19T10:03:32;2.93;;;2.73;;
6209;SDS011;3138;52.550;13.148;2023-11-19T10:06:00;7.73;;;3.53;;
6209;SDS011;3138;52.550;13.148;2023-11-19T10:08:28;3.10;;;2.80;;
6209;SDS011;3138;52.550;13.148;2023-11-19T10:10:55;5.33;;;3.30;;
6209;SDS011;3138;52.550;13.148;2023-11-19T10:13:27;5.43;;;3.17;;
6209;SDS011;3138;52.550;13.148;2023-11-19T10:15:55;10.60;;;3.80;;
6209;SDS011;3138;52.550;13.148;2023-11-19T10:18:23;9.17;;;3.10;;
6209;SDS011;3138;52.550;13.148;2023-11-19T10:20:51;10.27;;;3.73;;
6209;SDS011;3138;52.550;13.148;2023-11-19T10:23:20;9.60;;;3.37;;
6209;SDS011;3138;52.550;13.148;2023-11-19T10:25:47;19.07;;;4.13;;
6209;SDS011;3138;52.550;13.148;2023-11-19T10:28:14;16.43;;;3.03;;
6209;SDS011;3138;52.550;13.148;2023-11-19T10:30:44;11.33;;;3.40;;
6209;SDS011;3138;52.550;13.148;2023-11-19T10:33:11;12.77;;;3.40;;
6209;SDS011;3138;52.550;13.148;2023-11-19T10:35:50;11.50;;;4.17;;
6209;SDS011;3138;52.550;13.148;2023-11-19T10:38:18;6.53;;;3.10;;
6209;SDS011;3138;52.550;13.148;2023-11-19T10:40:45;15.83;;;3.83;;
6209;SDS011;3138;52.550;13.148;2023-11-19T10:43:12;16.20;;;2.73;;
6209;SDS011;3138;52.550;13.148;2023-11-19T10:45:40;9.57;;;3.50;;
6209;SDS011;3138;52.550;13.148;2023-11-19T10:48:08;21.43;;;3.83;;
6209;SDS011;3138;52.550;13.148;2023-11-19T10:50:36;12.30;;;3.63;;
6209;SDS011;3138;52.550;13.148;2023-11-19T10:53:04;12.50;;;3.50;;
6209;SDS011;3138;52.550;13.148;2023-11-19T10:55:31;14.10;;;3.83;;
6209;SDS011;3138;52.550;13.148;2023-11-19T10:58:00;23.80;;;4.37;;
6209;SDS011;3138;52.550;13.148;2023-11-19T11:00:32;15.00;;;3.63;;
6209;SDS011;3138;52.550;13.148;2023-11-19T11:03:05;17.70;;;4.23;;
6209;SDS011;3138;52.550;13.148;2023-11-19T11:05:40;32.63;;;4.17;;
6209;SDS011;3138;52.550;13.148;2023-11-19T11:08:07;21.37;;;4.60;;
6209;SDS011;3138;52.550;13.148;2023-11-19T11:10:35;20.00;;;4.53;;
6209;SDS011;3138;52.550;13.148;2023-11-19T11:13:09;20.40;;;3.47;;
6209;SDS011;3138;52.550;13.148;2023-11-19T11:15:37;25.00;;;4.50;;
6209;SDS011;3138;52.550;13.148;2023-11-19T11:18:04;26.47;;;4.33;;
6209;SDS011;3138;52.550;13.148;2023-11-19T11:20:36;20.90;;;4.67;;
6209;SDS011;3138;52.550;13.148;2023-11-19T11:26:00;28.10;;;4.43;;
6209;SDS011;3138;52.550;13.148;2023-11-19T11:28:41;28.10;;;5.73;;
6209;SDS011;3138;52.550;13.148;2023-11-19T11:31:21;21.47;;;4.63;;
6209;SDS011;3138;52.550;13.148;2023-11-19T11:34:01;28.87;;;4.40;;
6209;SDS011;3138;52.550;13.148;2023-11-19T11:36:45;17.70;;;4.10;;
6209;SDS011;3138;52.550;13.148;2023-11-19T11:39:20;25.97;;;4.20;;
6209;SDS011;3138;52.550;13.148;2023-11-19T11:41:55;24.03;;;5.37;;
6209;SDS011;3138;52.550;13.148;2023-11-19T11:45:01;35.20;;;6.20;;
6209;SDS011;3138;52.550;13.148;2023-11-19T11:50:47;25.07;;;4.87;;
6209;SDS011;3138;52.550;13.148;2023-11-19T11:53:20;28.27;;;6.07;;
6209;SDS011;3138;52.550;13.148;2023-11-19T11:55:53;21.17;;;5.57;;
6209;SDS011;3138;52.550;13.148;2023-11-19T11:58:25;40.13;;;5.20;;
6209;SDS011;3138;52.550;13.148;2023-11-19T12:00:56;22.40;;;4.90;;
6209;SDS011;3138;52.550;13.148;2023-11-19T12:03:26;29.93;;;5.30;;
6209;SDS011;3138;52.550;13.148;2023-11-19T12:05:54;26.20;;;6.30;;
6209;SDS011;3138;52.550;13.148;2023-11-19T12:08:25;27.43;;;5.40;;
6209;SDS011;3138;52.550;13.148;2023-11-19T12:10:53;30.63;;;6.13;;
6209;SDS011;3138;52.550;13.148;2023-11-19T12:13:23;26.60;;;5.80;;
6209;SDS011;3138;52.550;13.148;2023-11-19T12:16:08;29.23;;;5.77;;
6209;SDS011;3138;52.550;13.148;2023-11-19T12:18:36;31.73;;;6.10;;
6209;SDS011;3138;52.550;13.148;2023-11-19T12:21:05;60.13;;;5.50;;
6209;SDS011;3138;52.550;13.148;2023-11-19T12:23:36;41.87;;;10.30;;
6209;SDS011;3138;52.550;13.148;2023-11-19T12:29:02;29.90;;;5.40;;
6209;SDS011;3138;52.550;13.148;2023-11-19T12:31:32;31.10;;;5.77;;
6209;SDS011;3138;52.550;13.148;2023-11-19T12:34:08;25.27;;;5.67;;
6209;SDS011;3138;52.550;13.148;2023-11-19T12:36:37;28.93;;;7.10;;
6209;SDS011;3138;52.550;13.148;2023-11-19T12:39:09;60.03;;;6.57;;
6209;SDS011;3138;52.550;13.148;2023-11-19T12:41:52;32.03;;;6.57;;
6209;SDS011;3138;52.550;13.148;2023-11-19T12:44:19;35.53;;;6.23;;
6209;SDS011;3138;52.550;13.148;2023-11-19T12:46:46;35.13;;;6.33;;
6209;SDS011;3138;52.550;13.148;2023-11-19T12:49:25;26.90;;;5.80;;
6209;SDS011;3138;52.550;13.148;2023-11-19T12:51:52;38.47;;;6.33;;
6209;SDS011;3138;52.550;13.148;2023-11-19T12:54:20;38.17;;;5.80;;
6209;SDS011;3138;52.550;13.148;2023-11-19T12:56:57;37.27;;;5.90;;
6209;SDS011;3138;52.550;13.148;2023-11-19T12:59:24;21.47;;;4.83;;
6209;SDS011;3138;52.550;13.148;2023-11-19T13:01:55;24.50;;;5.73;;
6209;SDS011;3138;52.550;13.148;2023-11-19T13:04:22;25.57;;;5.80;;
6209;SDS011;3138;52.550;13.148;2023-11-19T13:06:50;45.93;;;6.00;;
6209;SDS011;3138;52.550;13.148;2023-11-19T13:09:26;41.73;;;7.30;;
6209;SDS011;3138;52.550;13.148;2023-11-19T13:11:54;27.80;;;5.80;;
6209;SDS011;3138;52.550;13.148;2023-11-19T13:14:22;32.90;;;5.47;;
6209;SDS011;3138;52.550;13.148;2023-11-19T13:16:49;47.30;;;7.60;;
6209;SDS011;3138;52.550;13.148;2023-11-19T13:19:19;33.13;;;6.33;;
6209;SDS011;3138;52.550;13.148;2023-11-19T13:21:45;30.73;;;6.33;;
6209;SDS011;3138;52.550;13.148;2023-11-19T13:24:13;45.23;;;8.40;;
6209;SDS011;3138;52.550;13.148;2023-11-19T13:26:41;54.33;;;8.20;;
6209;SDS011;3138;52.550;13.148;2023-11-19T13:29:08;40.40;;;7.00;;
6209;SDS011;3138;52.550;13.148;2023-11-19T13:31:35;35.00;;;8.90;;
6209;SDS011;3138;52.550;13.148;2023-11-19T13:34:05;29.43;;;7.00;;
6209;SDS011;3138;52.550;13.148;2023-11-19T13:36:33;41.00;;;8.03;;
6209;SDS011;3138;52.550;13.148;2023-11-19T13:39:00;30.77;;;6.53;;
6209;SDS011;3138;52.550;13.148;2023-11-19T13:41:27;48.80;;;5.50;;
6209;SDS011;3138;52.550;13.148;2023-11-19T13:43:56;35.53;;;6.37;;
6209;SDS011;3138;52.550;13.148;2023-11-19T13:46:23;41.03;;;7.10;;
6209;SDS011;3138;52.550;13.148;2023-11-19T13:48:50;46.40;;;7.80;;
6209;SDS011;3138;52.550;13.148;2023-11-19T13:51:17;44.93;;;7.73;;
6209;SDS011;3138;52.550;13.148;2023-11-19T13:53:44;48.73;;;7.30;;
6209;SDS011;3138;52.550;13.148;2023-11-19T13:56:11;41.57;;;7.40;;
6209;SDS011;3138;52.550;13.148;2023-11-19T13:58:38;47.07;;;8.40;;
6209;SDS011;3138;52.550;13.148;2023-11-19T14:01:07;54.90;;;15.23;;
6209;SDS011;3138;52.550;13.148;2023-11-19T14:03:33;48.33;;;11.63;;
6209;SDS011;3138;52.550;13.148;2023-11-19T14:06:00;52.33;;;10.80;;
6209;SDS011;3138;52.550;13.148;2023-11-19T14:08:27;73.37;;;31.90;;
6209;SDS011;3138;52.550;13.148;2023-11-19T14:10:54;47.93;;;9.60;;
6209;SDS011;3138;52.550;13.148;2023-11-19T14:13:21;34.97;;;6.90;;
6209;SDS011;3138;52.550;13.148;2023-11-19T14:15:48;40.60;;;7.37;;
6209;SDS011;3138;52.550;13.148;2023-11-19T14:18:17;48.60;;;7.57;;
6209;SDS011;3138;52.550;13.148;2023-11-19T14:20:44;44.93;;;9.37;;
6209;SDS011;3138;52.550;13.148;2023-11-19T14:23:11;41.93;;;8.97;;
6209;SDS011;3138;52.550;13.148;2023-11-19T14:25:38;53.13;;;12.33;;
6209;SDS011;3138;52.550;13.148;2023-11-19T14:28:05;37.80;;;8.23;;
6209;SDS011;3138;52.550;13.148;2023-11-19T14:30:32;64.70;;;7.73;;
6209;SDS011;3138;52.550;13.148;2023-11-19T14:32:59;41.47;;;8.90;;
6209;SDS011;3138;52.550;13.148;2023-11-19T14:35:28;38.57;;;9.37;;
6209;SDS011;3138;52.550;13.148;2023-11-19T14:37:55;32.13;;;8.30;;
6209;SDS011;3138;52.550;13.148;2023-11-19T14:40:25;45.93;;;8.97;;
6209;SDS011;3138;52.550;13.148;2023-11-19T14:42:51;41.67;;;8.27;;
6209;SDS011;3138;52.550;13.148;2023-11-19T14:45:18;48.83;;;8.97;;
6209;SDS011;3138;52.550;13.148;2023-11-19T14:47:45;38.43;;;7.33;;
6209;SDS011;3138;52.550;13.148;2023-11-19T14:50:12;34.53;;;7.27;;
6209;SDS011;3138;52.550;13.148;2023-11-19T14:52:40;42.70;;;8.37;;
6209;SDS011;3138;52.550;13.148;2023-11-19T14:55:07;31.60;;;6.80;;
6209;SDS011;3138;52.550;13.148;2023-11-19T14:57:36;47.83;;;6.90;;
6209;SDS011;3138;52.550;13.148;2023-11-19T15:00:04;35.07;;;6.60;;
6209;SDS011;3138;52.550;13.148;2023-11-19T15:02:38;45.60;;;8.23;;
6209;SDS011;3138;52.550;13.148;2023-11-19T15:05:05;39.40;;;6.60;;
6209;SDS011;3138;52.550;13.148;2023-11-19T15:07:34;57.10;;;7.80;;